Time;durP1;ratioP1;P1;durP2;ratioP2;P2;SDS_P1;SDS_P2;PMS_P1;PMS_P2;Temp;Humidity;BMP_temperature;BMP_pressure;BME280_temperature;BME280_humidity;BME280_pressure;Samples;Min_cycle;Max_cycle;Signal;HPM_P1;HPM_P2
2022/05/26 00:02:24;;;;;;;2.83;1.00;;;16.10;74.10;;;;;;5071390;28;20549;-84
2022/05/26 00:04:50;;;;;;;2.95;1.08;;;16.10;74.30;;;;;;5072291;28;20060;-84
2022/05/26 00:07:16;;;;;;;2.45;1.15;;;16.10;74.40;;;;;;5072891;28;20020;-83
2022/05/26 00:09:44;;;;;;;2.25;1.30;;;16.10;74.70;;;;;;5072775;28;20021;-84
2022/05/26 00:12:11;;;;;;;3.90;1.20;;;16.10;74.80;;;;;;5072773;28;20025;-84
2022/05/26 00:14:39;;;;;;;6.03;1.27;;;16.10;74.90;;;;;;5073412;28;20021;-83
2022/05/26 00:17:05;;;;;;;1.73;1.00;;;16.10;74.90;;;;;;5071174;28;20035;-84
2022/05/26 00:19:33;;;;;;;7.68;1.10;;;16.10;75.00;;;;;;5070787;28;20024;-83
2022/05/26 00:21:58;;;;;;;1.73;1.02;;;16.10;75.20;;;;;;5071177;28;20020;-84
2022/05/26 00:24:25;;;;;;;3.70;1.30;;;16.10;75.30;;;;;;5070402;28;20547;-83
2022/05/26 00:26:50;;;;;;;5.07;1.40;;;16.10;75.20;;;;;;5070507;28;20082;-83
2022/05/26 00:29:16;;;;;;;4.13;1.40;;;16.10;75.30;;;;;;5070545;28;20028;-83
2022/05/26 00:31:43;;;;;;;1.98;1.52;;;16.10;75.40;;;;;;5069911;28;20107;-83
2022/05/26 00:34:12;;;;;;;6.85;1.77;;;16.10;75.70;;;;;;5071854;28;20111;-83
2022/05/26 00:36:51;;;;;;;3.60;1.30;;;16.10;75.80;;;;;;5070408;28;20090;-84
2022/05/26 00:39:22;;;;;;;4.32;1.30;;;16.10;76.10;;;;;;5069898;28;20421;-83
2022/05/26 00:41:59;;;;;;;;;;;16.00;76.20;;;;;;5070243;28;20025;-84
2022/05/26 00:44:30;;;;;;;4.75;1.83;;;16.00;76.40;;;;;;5069437;28;19905;-83
2022/05/26 00:47:02;;;;;;;3.72;1.70;;;16.00;76.50;;;;;;5072014;28;20028;-83
2022/05/26 00:49:38;;;;;;;4.20;1.80;;;16.10;76.60;;;;;;5071928;28;20159;-85
2022/05/26 00:52:05;;;;;;;7.00;1.95;;;16.10;77.00;;;;;;5073890;28;20016;-84
2022/05/26 00:54:34;;;;;;;5.25;1.88;;;16.00;77.00;;;;;;5073178;28;20374;-84
2022/05/26 00:57:08;;;;;;;3.50;1.38;;;16.00;77.20;;;;;;5071649;28;20047;-84
2022/05/26 00:59:58;;;;;;;3.63;1.58;;;16.00;77.60;;;;;;5071442;28;20024;-84
2022/05/26 01:02:32;;;;;;;6.07;2.00;;;16.00;77.60;;;;;;5073408;28;20056;-84
2022/05/26 01:05:01;;;;;;;4.95;1.70;;;16.00;77.80;;;;;;5071006;28;20028;-84
2022/05/26 01:07:30;;;;;;;1.65;1.48;;;16.00;78.00;;;;;;5071753;28;20025;-82
2022/05/26 01:09:56;;;;;;;4.35;1.60;;;15.90;78.20;;;;;;5070573;28;20421;-83
2022/05/26 01:12:23;;;;;;;7.07;1.95;;;15.90;78.40;;;;;;5071613;28;20036;-83
2022/05/26 01:15:16;;;;;;;4.63;2.00;;;16.00;78.30;;;;;;5071776;28;20477;-83
2022/05/26 01:17:56;;;;;;;6.63;1.92;;;16.00;78.70;;;;;;5072016;28;20121;-83
2022/05/26 01:20:31;;;;;;;7.03;1.80;;;16.00;79.20;;;;;;5076986;28;20024;-86
2022/05/26 01:23:30;;;;;;;4.03;1.60;;;15.90;79.40;;;;;;5077570;28;20508;-86
2022/05/26 01:26:20;;;;;;;6.07;2.20;;;15.90;79.00;;;;;;5077301;28;20028;-85
2022/05/26 01:29:23;;;;;;;6.80;1.73;;;15.90;79.30;;;;;;5077708;28;20124;-85
2022/05/26 01:32:10;;;;;;;6.78;2.08;;;15.90;79.40;;;;;;5077394;28;20033;-85
2022/05/26 01:34:54;;;;;;;4.28;1.90;;;15.90;79.50;;;;;;5077175;28;20028;-84
2022/05/26 01:37:56;;;;;;;2.92;1.83;;;15.90;79.80;;;;;;5077756;28;20032;-85
2022/05/26 01:40:36;;;;;;;6.80;2.22;;;15.90;80.10;;;;;;5077499;28;20091;-85
2022/05/26 01:43:43;;;;;;;3.83;2.10;;;15.90;80.70;;;;;;5077518;28;20033;-85
2022/05/26 01:46:28;;;;;;;7.35;2.17;;;15.90;80.60;;;;;;5078678;28;20025;-85
2022/05/26 01:49:12;;;;;;;7.93;2.13;;;15.80;80.90;;;;;;5077415;28;20028;-86
2022/05/26 01:51:54;;;;;;;5.90;2.55;;;15.80;81.20;;;;;;5077743;28;20058;-85
2022/05/26 01:54:30;;;;;;;5.70;2.40;;;15.90;81.60;;;;;;5077012;28;20119;-84
2022/05/26 01:57:05;;;;;;;7.15;2.78;;;15.90;82.00;;;;;;5079273;28;20025;-85
2022/05/26 01:59:42;;;;;;;4.05;1.90;;;15.90;82.40;;;;;;5078488;28;20025;-85
2022/05/26 02:02:15;;;;;;;2.50;1.92;;;15.80;83.10;;;;;;5075398;28;20474;-84
2022/05/26 02:04:48;;;;;;;7.15;2.45;;;15.80;84.00;;;;;;5063560;28;20025;-85
2022/05/26 02:07:21;;;;;;;6.65;2.55;;;15.80;85.70;;;;;;5064157;28;20474;-84
2022/05/26 02:09:51;;;;;;;3.47;2.25;;;15.80;86.40;;;;;;5068881;28;20036;-85
2022/05/26 02:12:34;;;;;;;6.35;1.73;;;15.80;86.80;;;;;;5064357;28;20406;-84
2022/05/26 02:15:06;;;;;;;2.08;1.80;;;15.70;87.50;;;;;;5073777;28;20028;-84
2022/05/26 02:17:36;;;;;;;2.35;1.80;;;15.70;88.10;;;;;;5071348;28;20040;-85
2022/05/26 02:20:15;;;;;;;2.38;2.00;;;15.70;88.60;;;;;;5073322;28;20020;-85
2022/05/26 02:22:51;;;;;;;3.38;1.90;;;15.70;89.10;;;;;;5071331;28;20136;-85
2022/05/26 02:25:20;;;;;;;3.88;2.60;;;15.60;89.80;;;;;;5068641;28;20120;-84
2022/05/26 02:27:51;;;;;;;4.90;2.55;;;15.70;90.10;;;;;;5065925;28;20078;-85
2022/05/26 02:30:24;;;;;;;5.53;2.67;;;15.60;90.30;;;;;;5069776;28;20032;-85
2022/05/26 02:32:53;;;;;;;4.00;2.95;;;15.60;90.40;;;;;;5062232;28;20045;-85
2022/05/26 02:35:32;;;;;;;4.28;2.47;;;15.70;90.60;;;;;;5073749;28;20073;-85
2022/05/26 02:38:21;;;;;;;6.35;3.13;;;15.70;90.70;;;;;;5072349;28;20055;-85
2022/05/26 02:40:53;;;;;;;7.03;3.75;;;15.60;91.00;;;;;;5067270;28;20021;-85
2022/05/26 02:43:28;;;;;;;6.15;3.90;;;15.60;91.30;;;;;;5071360;28;20307;-85
2022/05/26 02:46:23;;;;;;;6.35;4.32;;;15.60;91.70;;;;;;5065570;28;20025;-85
2022/05/26 02:49:00;;;;;;;4.68;4.28;;;15.50;92.30;;;;;;5069952;28;20377;-85
2022/05/26 02:51:43;;;;;;;8.15;4.50;;;15.50;92.80;;;;;;5062877;28;20058;-84
2022/05/26 02:54:29;;;;;;;10.75;4.90;;;15.50;93.20;;;;;;5061908;28;20474;-85
2022/05/26 02:57:18;;;;;;;6.82;4.10;;;15.50;93.70;;;;;;5063215;28;20013;-85
2022/05/26 03:00:09;;;;;;;8.60;4.65;;;15.40;94.10;;;;;;5062231;28;20438;-85
2022/05/26 03:03:06;;;;;;;11.45;5.18;;;15.50;94.70;;;;;;5063835;28;20446;-85
2022/05/26 03:06:04;;;;;;;8.57;5.30;;;15.50;95.00;;;;;;5066541;28;20419;-86
2022/05/26 03:08:36;;;;;;;9.10;5.30;;;15.50;95.30;;;;;;5061935;28;20020;-85
2022/05/26 03:11:10;;;;;;;7.18;5.80;;;15.50;95.50;;;;;;5066394;28;20039;-85
2022/05/26 03:13:37;;;;;;;12.57;5.65;;;15.40;95.90;;;;;;5074881;28;20032;-86
2022/05/26 03:16:05;;;;;;;5.75;4.28;;;15.40;96.20;;;;;;5072829;28;20493;-85
2022/05/26 03:18:31;;;;;;;5.80;5.25;;;15.40;96.70;;;;;;5072524;28;20043;-86
2022/05/26 03:21:00;;;;;;;6.55;5.20;;;15.40;96.80;;;;;;5072909;28;20017;-85
2022/05/26 03:23:26;;;;;;;8.35;4.38;;;15.40;97.00;;;;;;5073486;28;20351;-86
2022/05/26 03:25:57;;;;;;;13.95;5.57;;;15.40;97.30;;;;;;5073657;28;20099;-84
2022/05/26 03:28:24;;;;;;;9.00;5.50;;;15.40;97.40;;;;;;5060421;28;20033;-84
2022/05/26 03:30:50;;;;;;;6.88;5.32;;;15.30;97.70;;;;;;5052631;28;20051;-84
2022/05/26 03:33:16;;;;;;;7.28;5.28;;;15.40;97.70;;;;;;5051999;28;20033;-84
2022/05/26 03:41:10;;;;;;;7.28;4.55;;;15.40;98.10;;;;;;5052428;28;20258;-86
2022/05/26 03:43:40;;;;;;;10.68;5.40;;;15.40;98.50;;;;;;5053589;28;20029;-85
2022/05/26 03:46:06;;;;;;;6.95;5.47;;;15.30;98.70;;;;;;5053119;28;20033;-84
2022/05/26 03:48:32;;;;;;;11.75;5.80;;;15.30;99.10;;;;;;5052954;28;20036;-85
2022/05/26 03:50:58;;;;;;;12.75;5.82;;;15.30;99.20;;;;;;5064239;28;20032;-85
2022/05/26 03:53:24;;;;;;;11.02;5.35;;;15.30;99.50;;;;;;5063584;28;20029;-85
2022/05/26 03:55:50;;;;;;;6.75;5.10;;;15.30;99.70;;;;;;5052340;28;20052;-84
2022/05/26 03:58:17;;;;;;;8.00;5.47;;;15.30;99.90;;;;;;5053604;28;20067;-85
2022/05/26 04:00:42;;;;;;;11.70;5.60;;;15.30;99.90;;;;;;5054900;28;20039;-85
2022/05/26 04:03:09;;;;;;;9.52;5.57;;;15.30;99.90;;;;;;5063718;28;20025;-86
2022/05/26 04:05:35;;;;;;;8.00;5.72;;;15.40;99.90;;;;;;5057395;28;20021;-86
2022/05/26 04:08:00;;;;;;;9.43;5.10;;;15.40;99.90;;;;;;5063783;28;20043;-85
2022/05/26 04:10:26;;;;;;;7.63;4.95;;;15.40;99.90;;;;;;5044955;28;20118;-83
2022/05/26 04:12:52;;;;;;;8.25;5.57;;;15.40;99.90;;;;;;5060836;28;20040;-83
2022/05/26 04:15:18;;;;;;;9.20;6.18;;;15.50;99.90;;;;;;5058452;28;20025;-84
2022/05/26 04:17:45;;;;;;;7.35;6.10;;;15.40;99.90;;;;;;5058773;28;20074;-84
2022/05/26 04:20:13;;;;;;;8.15;5.95;;;15.50;99.90;;;;;;5059654;28;20024;-84
2022/05/26 04:22:39;;;;;;;8.75;5.40;;;15.50;99.90;;;;;;5060558;28;20020;-84
2022/05/26 04:25:06;;;;;;;7.70;5.82;;;15.40;99.90;;;;;;5060584;28;20415;-84
2022/05/26 04:27:32;;;;;;;7.43;6.18;;;15.50;99.90;;;;;;5056277;28;20581;-83
2022/05/26 04:29:58;;;;;;;10.00;6.43;;;15.50;99.90;;;;;;5059700;28;20425;-84
2022/05/26 04:32:25;;;;;;;11.77;6.88;;;15.60;99.90;;;;;;5060442;28;20021;-84
2022/05/26 04:34:51;;;;;;;11.57;6.60;;;15.60;99.90;;;;;;5065472;28;20029;-84
2022/05/26 04:37:22;;;;;;;10.35;6.15;;;15.60;99.90;;;;;;5065552;28;20017;-84
2022/05/26 04:39:48;;;;;;;6.03;5.40;;;15.60;99.90;;;;;;5060912;28;20016;-83
2022/05/26 04:42:14;;;;;;;7.78;6.28;;;15.60;99.90;;;;;;5066333;28;20386;-85
2022/05/26 04:44:42;;;;;;;10.98;6.90;;;15.50;99.90;;;;;;5070902;28;20482;-84
2022/05/26 04:47:08;;;;;;;13.60;6.25;;;15.40;99.90;;;;;;5072546;28;20024;-84
2022/05/26 04:49:37;;;;;;;11.52;8.02;;;15.20;99.90;;;;;;5071945;28;20028;-85
2022/05/26 04:52:10;;;;;;;13.43;7.15;;;15.10;99.90;;;;;;5070837;28;20033;-84
2022/05/26 04:54:36;;;;;;;7.75;6.53;;;15.00;99.90;;;;;;5071897;28;20050;-84
2022/05/26 04:57:03;;;;;;;16.55;7.47;;;15.00;99.90;;;;;;5069305;28;20419;-85
2022/05/26 04:59:30;;;;;;;8.85;6.30;;;14.90;99.90;;;;;;5070275;28;20036;-86
2022/05/26 05:01:56;;;;;;;6.13;5.35;;;15.00;99.90;;;;;;5066472;28;20042;-85
2022/05/26 05:04:25;;;;;;;8.23;6.40;;;15.00;99.90;;;;;;5068621;28;20630;-86
2022/05/26 05:06:51;;;;;;;9.32;6.85;;;15.00;99.90;;;;;;5071970;28;20448;-84
2022/05/26 05:09:17;;;;;;;13.65;6.85;;;15.00;99.90;;;;;;5057433;28;20040;-85
2022/05/26 05:11:43;;;;;;;10.18;7.68;;;14.90;99.90;;;;;;5049848;28;20597;-85
2022/05/26 05:14:09;;;;;;;8.73;6.97;;;14.90;99.90;;;;;;5050472;28;20119;-85
2022/05/26 05:16:42;;;;;;;9.48;7.32;;;14.90;99.90;;;;;;5051279;28;20029;-85
2022/05/26 05:19:12;;;;;;;10.52;7.75;;;14.80;99.90;;;;;;5050047;28;20029;-85
2022/05/26 05:21:56;;;;;;;9.20;6.93;;;14.80;99.90;;;;;;5049534;28;20021;-84
2022/05/26 05:24:45;;;;;;;11.55;7.30;;;14.80;99.90;;;;;;5049908;28;20429;-85
2022/05/26 05:27:29;;;;;;;13.05;7.65;;;14.70;99.90;;;;;;5049381;28;20540;-84
2022/05/26 05:29:59;;;;;;;11.40;6.93;;;14.80;99.90;;;;;;5051357;28;20470;-84
2022/05/26 05:32:44;;;;;;;9.23;7.82;;;14.70;99.90;;;;;;5055353;28;20029;-84
2022/05/26 05:35:19;;;;;;;12.88;8.65;;;14.70;99.90;;;;;;5053772;28;20025;-85
2022/05/26 05:37:44;;;;;;;20.08;9.75;;;14.60;99.90;;;;;;5063960;28;20071;-85
2022/05/26 05:40:10;;;;;;;14.35;9.07;;;14.50;99.90;;;;;;5074660;28;20033;-85
2022/05/26 05:42:36;;;;;;;12.90;10.93;;;14.40;99.90;;;;;;5074727;28;20059;-85
2022/05/26 05:45:02;;;;;;;13.50;11.38;;;14.40;99.90;;;;;;5074176;28;20052;-85
2022/05/26 05:47:28;;;;;;;14.23;10.57;;;14.30;99.90;;;;;;5075153;28;20024;-85
2022/05/26 05:49:53;;;;;;;15.82;12.40;;;14.20;99.90;;;;;;5074681;28;20042;-85
2022/05/26 05:52:21;;;;;;;14.95;12.35;;;14.20;99.90;;;;;;5075115;28;20099;-85
2022/05/26 05:54:47;;;;;;;12.80;11.50;;;14.20;99.90;;;;;;5074846;28;20016;-85
2022/05/26 05:57:12;;;;;;;17.30;12.55;;;14.30;99.90;;;;;;5073877;28;20385;-85
2022/05/26 05:59:38;;;;;;;16.02;13.00;;;14.40;99.90;;;;;;5072827;28;20028;-85
2022/05/26 06:02:04;;;;;;;12.68;11.30;;;14.60;99.90;;;;;;5068329;28;20016;-86
2022/05/26 06:04:29;;;;;;;12.75;11.00;;;14.70;99.90;;;;;;5054628;28;20032;-85
2022/05/26 06:06:55;;;;;;;11.20;9.55;;;14.70;99.90;;;;;;5056923;28;20028;-87
2022/05/26 06:09:21;;;;;;;13.13;11.25;;;14.80;99.90;;;;;;5064632;28;20036;-87
2022/05/26 06:11:48;;;;;;;12.30;9.93;;;14.90;99.90;;;;;;5066153;28;20032;-86
2022/05/26 06:14:14;;;;;;;11.80;10.05;;;15.10;99.90;;;;;;5062186;28;20031;-88
2022/05/26 06:16:40;;;;;;;12.35;10.40;;;15.20;99.90;;;;;;5065186;28;20060;-87
2022/05/26 06:19:05;;;;;;;14.55;10.70;;;15.30;99.90;;;;;;5065331;28;20491;-87
2022/05/26 06:21:32;;;;;;;11.98;10.68;;;15.50;99.90;;;;;;5069598;28;20112;-87
2022/05/26 06:23:58;;;;;;;13.27;10.90;;;15.70;99.90;;;;;;5068520;28;20144;-86
2022/05/26 06:26:25;;;;;;;9.82;8.77;;;15.80;99.90;;;;;;5069859;28;20075;-88
2022/05/26 06:31:35;;;;;;;15.63;8.70;;;15.90;99.90;;;;;;5068444;28;20031;-86
2022/05/26 06:39:30;;;;;;;14.38;7.85;;;16.30;99.90;;;;;;5067343;28;20507;-86
2022/05/26 06:42:07;;;;;;;14.90;8.52;;;16.50;99.90;;;;;;5066208;28;20029;-84
2022/05/26 06:44:42;;;;;;;11.93;7.45;;;16.40;99.90;;;;;;5058386;28;20066;-87
2022/05/26 06:47:19;;;;;;;13.80;7.70;;;16.50;99.90;;;;;;5065614;28;20690;-84
2022/05/26 06:49:45;;;;;;;9.82;7.03;;;16.60;99.90;;;;;;5065079;28;20044;-85
2022/05/26 06:52:12;;;;;;;10.27;7.32;;;16.70;99.90;;;;;;5062766;28;20386;-85
2022/05/26 06:54:41;;;;;;;12.77;7.05;;;16.70;99.90;;;;;;5063974;28;20504;-85
2022/05/26 06:57:07;;;;;;;11.75;8.00;;;16.60;99.90;;;;;;5063555;28;20039;-86
2022/05/26 06:59:34;;;;;;;9.60;6.15;;;16.70;99.90;;;;;;5067152;28;20044;-85
2022/05/26 07:02:00;;;;;;;10.95;7.53;;;16.70;99.90;;;;;;5065424;28;20066;-87
2022/05/26 07:04:25;;;;;;;10.57;6.10;;;16.70;99.90;;;;;;5062889;28;20021;-86
2022/05/26 07:06:53;;;;;;;12.68;7.35;;;16.80;99.90;;;;;;5062486;28;20028;-87
2022/05/26 07:09:19;;;;;;;7.10;5.70;;;16.80;99.90;;;;;;5064753;28;20047;-87
2022/05/26 07:11:45;;;;;;;16.17;7.78;;;16.90;99.90;;;;;;5061550;28;20031;-86
2022/05/26 07:14:12;;;;;;;11.07;6.80;;;16.90;99.90;;;;;;5065990;28;20037;-87
2022/05/26 07:16:38;;;;;;;11.70;6.63;;;16.90;99.90;;;;;;5062114;28;20093;-87
2022/05/26 07:19:04;;;;;;;13.25;6.72;;;17.00;99.90;;;;;;5065036;28;20041;-89
2022/05/26 07:21:30;;;;;;;11.18;6.45;;;17.30;99.90;;;;;;5065475;28;20017;-87
2022/05/26 07:23:55;;;;;;;10.38;5.80;;;17.30;99.90;;;;;;5057061;28;20494;-86
2022/05/26 07:26:21;;;;;;;11.35;5.40;;;17.30;99.90;;;;;;5053804;28;20035;-86
2022/05/26 07:28:51;;;;;;;14.80;6.22;;;17.10;99.90;;;;;;5054277;28;20079;-86
2022/05/26 07:31:17;;;;;;;10.27;5.43;;;17.30;99.90;;;;;;5053383;28;20020;-86
2022/05/26 07:33:43;;;;;;;8.50;5.47;;;17.50;99.90;;;;;;5053519;28;20086;-85
2022/05/26 07:41:16;;;;;;;9.55;5.22;;;17.50;99.90;;;;;;5052378;28;20493;-84
2022/05/26 07:41:39;;;;;;;5.13;4.50;;;17.50;99.90;;;;;;5053147;28;20124;-85
2022/05/26 07:44:05;;;;;;;5.20;3.83;;;17.80;99.90;;;;;;5052264;28;20029;-86
2022/05/26 07:46:30;;;;;;;8.40;4.20;;;17.90;99.90;;;;;;5054679;28;20033;-86
2022/05/26 07:48:56;;;;;;;7.70;4.28;;;18.00;99.90;;;;;;5052505;28;20444;-86
2022/05/26 07:51:22;;;;;;;12.70;4.65;;;18.00;99.90;;;;;;5050984;28;20025;-85
2022/05/26 07:53:48;;;;;;;11.90;4.07;;;18.00;99.90;;;;;;5054371;28;20498;-86
2022/05/26 07:56:14;;;;;;;5.85;3.90;;;18.10;99.90;;;;;;5056019;28;20047;-86
2022/05/26 07:58:39;;;;;;;13.40;4.93;;;18.40;99.90;;;;;;5060603;28;20035;-86
2022/05/26 08:01:07;;;;;;;7.45;3.92;;;18.30;99.90;;;;;;5062485;28;20386;-86
2022/05/26 08:03:34;;;;;;;7.85;3.72;;;18.30;99.90;;;;;;5059118;28;20032;-85
2022/05/26 08:06:00;;;;;;;7.93;4.10;;;18.30;99.90;;;;;;5065612;28;20120;-85
2022/05/26 08:08:26;;;;;;;10.80;4.53;;;18.40;99.90;;;;;;5062249;28;20048;-85
2022/05/26 08:10:52;;;;;;;6.78;3.45;;;18.40;99.90;;;;;;5064624;28;20394;-85
2022/05/26 08:13:19;;;;;;;9.07;3.55;;;18.60;99.90;;;;;;5060737;28;20037;-86
2022/05/26 08:15:46;;;;;;;4.88;3.20;;;19.10;99.90;;;;;;5063188;28;20021;-85
2022/05/26 08:18:12;;;;;;;8.48;3.72;;;19.70;98.90;;;;;;5058666;28;20024;-85
2022/05/26 08:20:38;;;;;;;7.72;3.35;;;19.90;98.60;;;;;;5063857;28;20017;-85
2022/05/26 08:23:03;;;;;;;5.88;2.95;;;19.60;97.90;;;;;;5059964;28;20009;-86
2022/05/26 08:25:29;;;;;;;8.07;4.57;;;20.10;97.10;;;;;;5063090;28;20024;-85
2022/05/26 08:27:55;;;;;;;7.90;3.63;;;20.20;96.60;;;;;;5062149;28;20101;-85
2022/05/26 08:30:21;;;;;;;6.20;3.33;;;20.00;97.00;;;;;;5063927;28;20043;-84
2022/05/26 08:32:46;;;;;;;6.53;3.35;;;19.80;96.80;;;;;;5060739;28;20033;-85
2022/05/26 08:35:12;;;;;;;9.80;3.80;;;19.60;97.50;;;;;;5058515;28;20028;-85
2022/05/26 08:37:38;;;;;;;12.60;3.95;;;19.30;97.40;;;;;;5064554;28;20021;-85
2022/05/26 08:40:05;;;;;;;10.80;4.22;;;19.10;97.90;;;;;;5059184;28;20016;-83
2022/05/26 08:42:34;;;;;;;5.18;3.78;;;18.90;98.20;;;;;;5062555;28;20030;-86
2022/05/26 08:45:08;;;;;;;6.18;3.45;;;18.70;98.50;;;;;;5072912;28;20029;-85
2022/05/26 08:47:45;;;;;;;8.13;2.90;;;19.00;98.40;;;;;;5072340;28;20546;-85
2022/05/26 08:50:15;;;;;;;7.88;4.07;;;20.30;97.80;;;;;;5057859;28;20032;-84
2022/05/26 08:52:47;;;;;;;6.70;3.33;;;20.30;95.60;;;;;;5054388;28;20059;-85
2022/05/26 08:55:17;;;;;;;7.68;3.55;;;20.60;95.50;;;;;;5055835;28;20029;-85
2022/05/26 08:58:06;;;;;;;7.85;3.58;;;21.10;94.30;;;;;;5056995;28;20025;-84
2022/05/26 09:00:33;;;;;;;6.10;2.97;;;21.80;93.10;;;;;;5065959;28;20395;-85
2022/05/26 09:03:00;;;;;;;5.97;3.35;;;22.60;91.80;;;;;;5070178;28;20025;-85
2022/05/26 09:05:33;;;;;;;9.90;3.17;;;23.30;90.10;;;;;;5074709;28;20020;-85
2022/05/26 09:13:46;;;;;;;9.35;3.08;;;22.70;90.10;;;;;;5076765;28;20389;-85
2022/05/26 09:16:13;;;;;;;9.55;3.10;;;23.00;87.20;;;;;;5076135;28;20020;-85
2022/05/26 09:18:40;;;;;;;6.38;2.60;;;23.10;86.80;;;;;;5077309;28;20046;-84
2022/05/26 09:21:33;;;;;;;7.53;3.08;;;22.90;85.70;;;;;;5075985;28;20393;-84
2022/05/26 09:24:22;;;;;;;5.32;2.28;;;23.40;81.60;;;;;;5074597;28;20023;-84
2022/05/26 09:27:06;;;;;;;4.65;3.15;;;24.90;79.20;;;;;;5074213;28;20031;-85
2022/05/26 09:29:37;;;;;;;6.97;2.63;;;25.40;73.70;;;;;;5074560;28;20020;-84
2022/05/26 09:32:08;;;;;;;5.78;2.10;;;25.30;72.80;;;;;;5075129;28;20024;-85
2022/05/26 09:34:34;;;;;;;4.00;1.85;;;25.50;68.70;;;;;;5074281;28;20035;-84
2022/05/26 09:37:07;;;;;;;6.15;2.00;;;26.00;66.50;;;;;;5078374;28;20053;-85
2022/05/26 09:39:42;;;;;;;5.55;2.30;;;26.20;65.50;;;;;;5078093;28;20116;-85
2022/05/26 09:42:28;;;;;;;5.25;2.25;;;24.30;66.20;;;;;;5077814;28;20028;-85
2022/05/26 09:45:11;;;;;;;8.57;2.80;;;23.60;67.60;;;;;;5078682;28;20413;-85
2022/05/26 09:47:53;;;;;;;6.95;2.88;;;22.10;71.30;;;;;;5073415;28;20434;-85
2022/05/26 09:50:31;;;;;;;9.70;3.65;;;21.50;73.80;;;;;;5062391;28;20170;-85
2022/05/26 09:52:56;;;;;;;5.32;2.92;;;20.90;75.20;;;;;;5064570;28;20040;-84
2022/05/26 09:55:29;;;;;;;10.52;2.70;;;20.70;76.10;;;;;;5071880;28;20024;-85
2022/05/26 09:58:28;;;;;;;7.10;2.92;;;20.20;77.50;;;;;;5073235;28;20020;-84
2022/05/26 10:00:55;;;;;;;5.63;2.88;;;20.30;78.80;;;;;;5071434;28;20024;-86
2022/05/26 10:03:26;;;;;;;5.93;2.90;;;20.40;78.10;;;;;;5075411;28;20082;-84
2022/05/26 10:06:17;;;;;;;7.28;3.40;;;20.30;78.40;;;;;;5074637;28;20513;-83
2022/05/26 10:09:05;;;;;;;5.82;3.45;;;20.50;78.30;;;;;;5060298;28;20510;-84
2022/05/26 10:11:52;;;;;;;9.45;3.25;;;20.30;78.50;;;;;;5061859;28;20494;-83
2022/05/26 10:14:36;;;;;;;11.45;4.93;;;19.90;78.20;;;;;;5054956;28;20035;-83
2022/05/26 10:17:20;;;;;;;8.30;2.67;;;20.00;79.90;;;;;;5053575;28;20028;-83
2022/05/26 10:20:27;;;;;;;7.43;3.15;;;20.10;78.80;;;;;;5053309;28;20041;-83
2022/05/26 10:23:16;;;;;;;6.82;2.88;;;20.00;79.90;;;;;;5074079;28;20111;-84
2022/05/26 10:26:12;;;;;;;8.13;2.65;;;20.00;79.10;;;;;;5072965;28;20025;-84
2022/05/26 10:29:14;;;;;;;7.57;2.80;;;19.90;79.10;;;;;;5075026;28;20511;-83
2022/05/26 10:31:57;;;;;;;7.30;3.13;;;19.70;79.40;;;;;;5060835;28;20140;-83
2022/05/26 10:34:59;;;;;;;9.65;3.53;;;20.20;79.30;;;;;;5065946;28;20414;-84
2022/05/26 10:37:52;;;;;;;5.25;2.85;;;21.10;78.70;;;;;;5073928;28;20078;-84
2022/05/26 10:40:39;;;;;;;8.45;3.17;;;23.00;73.20;;;;;;5074998;28;20086;-84
2022/05/26 10:43:46;;;;;;;7.68;2.30;;;23.70;70.50;;;;;;5074339;28;20024;-84
2022/05/26 10:46:12;;;;;;;7.40;2.30;;;25.00;70.10;;;;;;5073471;28;20032;-82
2022/05/26 10:48:48;;;;;;;6.40;2.15;;;26.30;63.20;;;;;;5073155;28;20104;-84
2022/05/26 10:51:16;;;;;;;4.18;1.95;;;26.60;61.80;;;;;;5070750;28;20473;-82
2022/05/26 10:54:00;;;;;;;5.38;1.98;;;26.20;62.60;;;;;;5074572;28;20057;-82
2022/05/26 10:56:58;;;;;;;6.05;2.47;;;25.20;61.30;;;;;;5075525;28;20031;-82
2022/05/26 10:59:33;;;;;;;4.07;2.15;;;23.80;63.70;;;;;;5057796;28;20037;-82
2022/05/26 11:02:21;;;;;;;2.45;1.70;;;23.90;64.30;;;;;;5073991;28;20024;-82
2022/05/26 11:05:01;;;;;;;5.18;1.52;;;23.80;64.40;;;;;;5070702;28;20028;-82
2022/05/26 11:08:09;;;;;;;6.53;2.55;;;24.00;64.10;;;;;;5069026;28;20029;-82
2022/05/26 11:10:42;;;;;;;7.60;2.38;;;23.60;64.70;;;;;;5039218;28;20097;-81
2022/05/26 11:13:43;;;;;;;7.22;2.20;;;22.90;66.30;;;;;;5076895;28;20489;-82
2022/05/26 11:19:36;;;;;;;6.00;2.00;;;21.50;68.80;;;;;;5076579;28;19926;-82
2022/05/26 11:22:05;;;;;;;4.53;2.33;;;21.30;69.50;;;;;;5076294;28;20031;-82
2022/05/26 11:24:33;;;;;;;5.65;2.22;;;21.10;70.60;;;;;;5078585;28;20025;-86
2022/05/26 11:27:09;;;;;;;10.52;2.95;;;21.00;70.10;;;;;;5080149;28;20063;-83
2022/05/26 11:29:40;;;;;;;5.57;2.35;;;21.00;71.90;;;;;;5076928;28;20674;-85
2022/05/26 11:38:04;;;;;;;6.55;3.15;;;21.30;71.70;;;;;;5083238;28;20030;-85
2022/05/26 11:40:35;;;;;;;4.97;2.53;;;20.90;71.90;;;;;;5079801;28;20040;-81
2022/05/26 11:43:07;;;;;;;9.00;2.00;;;20.50;72.40;;;;;;5080010;28;20020;-82
2022/05/26 11:45:36;;;;;;;4.30;2.08;;;20.30;72.00;;;;;;5079227;28;20032;-82
2022/05/26 11:48:03;;;;;;;11.15;2.88;;;20.10;73.40;;;;;;5078587;28;20539;-81
2022/05/26 11:50:58;;;;;;;9.30;3.42;;;20.00;73.50;;;;;;5079032;28;20029;-81
2022/05/26 11:53:33;;;;;;;5.32;2.65;;;20.20;74.40;;;;;;5080502;28;20094;-81
2022/05/26 11:56:04;;;;;;;6.47;3.10;;;20.40;73.70;;;;;;5079723;28;20021;-82
2022/05/26 11:58:41;;;;;;;8.63;3.78;;;21.20;73.30;;;;;;5078433;28;20024;-82
2022/05/26 12:01:19;;;;;;;6.15;2.67;;;21.50;72.40;;;;;;5080818;28;20021;-81
2022/05/26 12:04:00;;;;;;;11.48;4.03;;;21.30;70.50;;;;;;5079953;28;20044;-82
2022/05/26 12:06:38;;;;;;;9.68;3.03;;;21.30;72.40;;;;;;5079844;28;20052;-83
2022/05/26 12:09:18;;;;;;;5.35;2.58;;;21.30;73.40;;;;;;5081705;28;20044;-81
2022/05/26 12:11:59;;;;;;;10.15;2.97;;;21.40;71.70;;;;;;5080967;28;20084;-82
2022/05/26 12:14:47;;;;;;;8.77;2.70;;;21.30;71.90;;;;;;5077138;28;20036;-82
2022/05/26 12:17:37;;;;;;;6.53;2.73;;;21.50;71.00;;;;;;5079931;28;20048;-83
2022/05/26 12:20:12;;;;;;;5.10;2.47;;;22.20;71.30;;;;;;5080545;28;20384;-82
2022/05/26 12:22:49;;;;;;;6.35;2.63;;;22.70;70.10;;;;;;5080880;28;20031;-82
2022/05/26 12:25:19;;;;;;;13.98;4.75;;;23.10;70.10;;;;;;5080604;28;20108;-82
2022/05/26 12:27:48;;;;;;;17.85;6.30;;;22.90;67.50;;;;;;5090539;28;20021;-82
2022/05/26 12:30:38;;;;;;;6.80;2.95;;;22.80;69.70;;;;;;5091941;28;20089;-82
2022/05/26 12:33:31;;;;;;;9.98;3.35;;;22.90;67.60;;;;;;5079827;28;20028;-82
2022/05/26 12:36:30;;;;;;;6.43;2.40;;;23.00;66.30;;;;;;5079549;28;20033;-85
2022/05/26 12:39:30;;;;;;;9.25;2.88;;;22.40;68.10;;;;;;5079903;28;20088;-84
2022/05/26 12:42:16;;;;;;;8.65;2.58;;;22.40;66.40;;;;;;5073589;28;20045;-83
2022/05/26 12:45:01;;;;;;;5.97;2.15;;;22.30;67.40;;;;;;5080812;28;20033;-85
2022/05/26 12:48:09;;;;;;;5.00;2.05;;;22.70;66.20;;;;;;5079418;28;20025;-83
2022/05/26 12:50:43;;;;;;;9.55;2.50;;;22.50;67.70;;;;;;5081429;28;20025;-83
2022/05/26 12:53:22;;;;;;;5.65;2.63;;;21.80;68.50;;;;;;5080818;28;20033;-83
2022/05/26 12:55:58;;;;;;;5.18;2.35;;;21.50;68.90;;;;;;5083308;28;20301;-84
2022/05/26 12:58:37;;;;;;;9.15;2.40;;;21.10;70.60;;;;;;5089802;28;20020;-83
2022/05/26 13:01:06;;;;;;;6.65;2.08;;;21.00;71.30;;;;;;5091460;28;20080;-83
2022/05/26 13:03:51;;;;;;;7.65;2.70;;;21.00;71.20;;;;;;5091068;28;20084;-82
2022/05/26 13:06:30;;;;;;;5.60;2.35;;;21.10;70.70;;;;;;5090516;28;20473;-83
2022/05/26 13:09:11;;;;;;;6.70;2.38;;;21.80;69.30;;;;;;5091517;28;20031;-83
2022/05/26 13:11:44;;;;;;;6.60;2.28;;;21.70;69.40;;;;;;5092050;28;20059;-84
2022/05/26 13:14:36;;;;;;;7.43;2.00;;;21.70;67.80;;;;;;5092678;28;20013;-84
2022/05/26 13:17:12;;;;;;;7.22;1.75;;;21.30;69.40;;;;;;5093090;28;20060;-84
2022/05/26 13:19:44;;;;;;;5.38;1.92;;;21.30;69.70;;;;;;5092691;28;20039;-84
2022/05/26 13:22:32;;;;;;;8.05;2.17;;;21.10;70.50;;;;;;5092877;28;20055;-83
2022/05/26 13:25:09;;;;;;;4.95;2.20;;;20.90;71.40;;;;;;5076861;28;20025;-83
2022/05/26 13:27:48;;;;;;;8.30;1.90;;;21.20;71.60;;;;;;5094827;28;20044;-83
2022/05/26 13:33:08;;;;;;;6.40;2.20;;;21.40;70.50;;;;;;5093965;28;20019;-82
2022/05/26 13:35:51;;;;;;;6.53;2.50;;;21.20;71.00;;;;;;5095408;28;20055;-85
2022/05/26 13:38:46;;;;;;;9.80;2.92;;;20.90;73.20;;;;;;5095060;28;20021;-84
2022/05/26 13:41:26;;;;;;;7.95;2.08;;;20.70;72.90;;;;;;5092719;28;20009;-83
2022/05/26 13:43:54;;;;;;;;;;;20.40;73.20;;;;;;5094480;28;20067;-84
2022/05/26 13:46:29;;;;;;;4.93;2.05;;;20.30;73.20;;;;;;5094335;28;19959;-84
2022/05/26 13:48:59;;;;;;;5.38;2.35;;;20.30;72.50;;;;;;5094422;28;20016;-83
2022/05/26 13:52:00;;;;;;;6.82;2.33;;;20.30;73.50;;;;;;5095931;28;20020;-84
2022/05/26 13:54:28;;;;;;;5.13;1.95;;;20.80;72.40;;;;;;5090431;28;20060;-84